createdAt,value
2022-11-04T00:00:02.515Z,93.66
2022-11-04T00:01:03.048Z,93.70
2022-11-04T00:02:03.269Z,94.01
2022-11-04T00:03:02.811Z,94.11
2022-11-04T00:04:02.839Z,94.01
2022-11-04T00:05:03.166Z,94.21
2022-11-04T00:06:02.905Z,94.31
2022-11-04T00:07:03.339Z,94.11
2022-11-04T00:08:02.923Z,93.90
2022-11-04T00:09:03.290Z,94.21
2022-11-04T00:10:02.927Z,94.11
2022-11-04T00:11:03.214Z,94.31
2022-11-04T00:12:03.458Z,94.01
2022-11-04T00:13:03.091Z,94.31
2022-11-04T00:14:03.526Z,94.11
2022-11-04T00:15:03.184Z,94.11
2022-11-04T00:16:03.504Z,93.90
2022-11-04T00:17:02.917Z,93.90
2022-11-04T00:18:02.599Z,94.15
2022-11-04T00:19:02.967Z,94.26
2022-11-04T00:20:02.675Z,94.15
2022-11-04T00:21:02.414Z,94.76
2022-11-04T00:22:03.394Z,94.66
2022-11-04T00:23:03.077Z,94.87
2022-11-04T00:24:03.437Z,95.32
2022-11-04T00:25:03.118Z,95.21
2022-11-04T00:26:03.473Z,95.07
2022-11-04T00:27:02.903Z,94.76
2022-11-04T00:28:02.324Z,94.76
2022-11-04T00:29:02.664Z,94.35
2022-11-04T00:30:02.332Z,93.95
2022-11-04T00:31:02.696Z,93.74
2022-11-04T00:32:03.058Z,93.85
2022-11-04T00:33:02.484Z,94.15
2022-11-04T00:34:03.073Z,94.35
2022-11-04T00:35:03.134Z,94.15
2022-11-04T00:36:02.580Z,94.35
2022-11-04T00:37:02.751Z,94.05
2022-11-04T00:38:03.128Z,93.99
2022-11-04T00:39:02.800Z,94.15
2022-11-04T00:40:03.239Z,93.74
2022-11-04T00:41:02.912Z,93.74
2022-11-04T00:42:02.391Z,93.74
2022-11-04T00:43:02.754Z,93.44
2022-11-04T00:44:02.424Z,93.64
2022-11-04T00:45:02.812Z,93.85
2022-11-04T00:46:02.485Z,93.64
2022-11-04T00:47:03.546Z,93.95
2022-11-04T00:48:03.194Z,93.79
2022-11-04T00:49:02.950Z,94.20
2022-11-04T00:50:03.323Z,94.81
2022-11-04T00:51:03.114Z,94.81
2022-11-04T00:52:02.573Z,95.16
2022-11-04T00:53:02.937Z,95.32
2022-11-04T00:54:02.650Z,95.01
2022-11-04T00:55:03.127Z,94.81
2022-11-04T00:56:02.809Z,94.71
2022-11-04T00:57:03.293Z,95.01
2022-11-04T00:58:03.267Z,95.01
2022-11-04T00:59:03.781Z,94.91
2022-11-04T01:00:03.211Z,94.50
2022-11-04T01:01:03.792Z,94.40
2022-11-04T01:02:02.404Z,94.55
2022-11-04T01:03:02.252Z,94.75
2022-11-04T01:04:02.396Z,94.75
2022-11-04T01:05:02.812Z,94.85
2022-11-04T01:06:02.371Z,94.85
2022-11-04T01:07:02.853Z,94.55
2022-11-04T01:08:03.040Z,94.90
2022-11-04T01:09:02.707Z,94.59
2022-11-04T01:10:03.139Z,94.49
2022-11-04T01:11:02.875Z,94.79
2022-11-04T01:12:02.403Z,95.00
2022-11-04T01:13:02.566Z,95.00
2022-11-04T01:14:02.240Z,95.41
2022-11-04T01:15:02.712Z,95.20
2022-11-04T01:16:02.501Z,95.00
2022-11-04T01:17:02.900Z,94.90
2022-11-04T01:18:03.357Z,95.04
2022-11-04T01:19:03.323Z,95.20
2022-11-04T01:20:02.839Z,95.15
2022-11-04T01:21:03.286Z,95.04
2022-11-04T01:22:02.560Z,95.15
2022-11-04T01:23:02.260Z,94.94
2022-11-04T01:24:02.725Z,95.25
2022-11-04T01:25:02.386Z,95.35
2022-11-04T01:26:02.600Z,95.45
2022-11-04T01:27:03.072Z,95.04
2022-11-04T01:28:03.380Z,95.25
2022-11-04T01:29:02.882Z,95.50
2022-11-04T01:30:03.251Z,95.50
2022-11-04T01:31:03.005Z,95.50
2022-11-04T01:32:02.487Z,95.19
2022-11-04T01:33:02.245Z,95.19
2022-11-04T01:34:02.702Z,95.29
2022-11-04T01:35:02.402Z,95.29
2022-11-04T01:36:02.743Z,95.39
2022-11-04T01:37:02.777Z,95.60
2022-11-04T01:38:02.412Z,95.03
2022-11-04T01:39:02.875Z,95.54
2022-11-04T01:40:02.595Z,95.13
2022-11-04T01:41:03.053Z,95.75
2022-11-04T01:43:03.561Z,95.23
2022-11-04T01:44:02.959Z,95.54
2022-11-04T01:45:03.449Z,95.54
2022-11-04T01:46:03.265Z,95.54
2022-11-04T01:47:02.624Z,95.44
2022-11-04T01:48:02.432Z,95.54
2022-11-04T01:49:02.934Z,95.23
2022-11-04T01:50:02.661Z,95.13
2022-11-04T01:51:02.458Z,95.34
2022-11-04T01:52:02.864Z,94.62
2022-11-04T01:53:02.531Z,94.82
2022-11-04T01:54:02.990Z,95.03
2022-11-04T01:55:02.968Z,94.73
2022-11-04T01:56:02.753Z,94.93
2022-11-04T01:57:03.097Z,94.73
2022-11-04T01:58:02.851Z,94.77
2022-11-04T01:59:03.283Z,94.67
2022-11-04T02:00:03.053Z,94.46
2022-11-04T02:01:02.995Z,94.87
2022-11-04T02:02:02.637Z,94.97
2022-11-04T02:03:02.294Z,94.87
2022-11-04T02:04:02.618Z,94.56
2022-11-04T02:05:02.419Z,94.87
2022-11-04T02:06:02.768Z,94.87
2022-11-04T02:07:03.019Z,94.77
2022-11-04T02:08:02.758Z,94.56
2022-11-04T02:09:02.859Z,94.26
2022-11-04T02:10:02.546Z,94.56
2022-11-04T02:11:03.184Z,94.62
2022-11-04T02:12:02.469Z,94.21
2022-11-04T02:13:02.215Z,93.91
2022-11-04T02:14:02.590Z,93.80
2022-11-04T02:15:02.138Z,93.85
2022-11-04T02:16:02.637Z,94.26
2022-11-04T02:17:02.870Z,94.36
2022-11-04T02:18:02.671Z,94.26
2022-11-04T02:19:02.419Z,94.67
2022-11-04T02:20:02.729Z,94.06
2022-11-04T02:21:02.500Z,94.26
2022-11-04T02:22:02.952Z,94.56
2022-11-04T02:23:03.035Z,94.87
2022-11-04T02:24:02.731Z,94.15
2022-11-04T02:25:03.119Z,94.46
2022-11-04T02:26:02.570Z,94.46
2022-11-04T02:27:03.074Z,94.26
2022-11-04T02:28:02.747Z,94.36
2022-11-04T02:29:03.206Z,94.46
2022-11-04T02:30:02.764Z,94.56
2022-11-04T02:31:02.570Z,94.46
2022-11-04T02:32:02.706Z,94.46
2022-11-04T02:33:02.489Z,94.26
2022-11-04T02:34:02.221Z,94.15
2022-11-04T02:35:02.711Z,93.95
2022-11-04T02:36:02.689Z,93.89
2022-11-04T02:37:03.193Z,94.40
2022-11-04T02:38:02.611Z,94.30
2022-11-04T02:39:03.109Z,94.20
2022-11-04T02:40:02.861Z,94.40
2022-11-04T02:41:03.240Z,94.51
2022-11-04T02:42:02.467Z,93.99
2022-11-04T02:43:02.146Z,94.10
2022-11-04T02:44:01.927Z,94.30
2022-11-04T02:45:02.374Z,94.20
2022-11-04T02:46:02.053Z,93.69
2022-11-04T02:47:02.512Z,93.89
2022-11-04T02:48:02.401Z,94.04
2022-11-04T02:49:02.477Z,94.10
2022-11-04T02:50:02.275Z,93.79
2022-11-04T02:51:01.997Z,93.89
2022-11-04T02:52:03.066Z,93.93
2022-11-04T02:53:02.642Z,93.52
2022-11-04T02:54:02.475Z,93.63
2022-11-04T02:55:02.952Z,93.52
2022-11-04T02:56:02.985Z,93.43
2022-11-04T02:57:02.099Z,93.32
2022-11-04T02:58:02.527Z,93.52
2022-11-04T02:59:01.909Z,93.22
2022-11-04T03:00:02.379Z,93.01
2022-11-04T03:01:02.336Z,93.01
2022-11-04T03:02:02.795Z,92.91
2022-11-04T03:03:02.517Z,92.71
2022-11-04T03:04:02.242Z,92.30
2022-11-04T03:05:02.505Z,92.40
2022-11-04T03:06:02.300Z,92.30
2022-11-04T03:07:03.044Z,92.50
2022-11-04T03:08:03.298Z,92.30
2022-11-04T03:09:02.770Z,92.40
2022-11-04T03:10:02.818Z,92.10
2022-11-04T03:11:03.292Z,91.58
2022-11-04T03:12:03.735Z,91.99
2022-11-04T03:13:03.610Z,92.19
2022-11-04T03:14:03.370Z,92.10
2022-11-04T03:15:03.102Z,92.15
2022-11-04T03:16:03.500Z,91.38
2022-11-04T03:17:02.301Z,91.58
2022-11-04T03:18:02.646Z,91.89
2022-11-04T03:19:02.326Z,91.48
2022-11-04T03:20:02.490Z,91.58
2022-11-04T03:21:02.594Z,91.78
2022-11-04T03:22:02.384Z,91.78
2022-11-04T03:23:02.713Z,91.89
2022-11-04T03:24:02.684Z,91.27
2022-11-04T03:25:02.432Z,91.38
2022-11-04T03:26:02.850Z,91.69
2022-11-04T03:27:02.808Z,91.17
2022-11-04T03:28:02.645Z,91.38
2022-11-04T03:29:03.114Z,91.38
2022-11-04T03:30:03.024Z,91.27
2022-11-04T03:31:02.806Z,91.07
2022-11-04T03:32:02.199Z,91.38
2022-11-04T03:33:02.645Z,91.17
2022-11-04T03:34:02.525Z,91.27
2022-11-04T03:35:02.332Z,90.97
2022-11-04T03:36:02.375Z,90.97
2022-11-04T03:37:02.725Z,90.97
2022-11-04T03:38:03.069Z,90.56
2022-11-04T03:39:02.778Z,90.31
2022-11-04T03:40:03.273Z,90.11
2022-11-04T03:41:02.779Z,90.00
2022-11-04T03:42:02.219Z,90.00
2022-11-04T03:43:02.743Z,90.15
2022-11-04T03:44:02.293Z,90.05
2022-11-04T03:45:02.789Z,90.25
2022-11-04T03:46:02.319Z,90.15
2022-11-04T03:47:03.119Z,89.94
2022-11-04T03:48:02.841Z,90.15
2022-11-04T03:49:02.980Z,90.05
2022-11-04T03:50:02.703Z,90.05
2022-11-04T03:51:02.657Z,90.45
2022-11-04T03:52:03.141Z,89.94
2022-11-04T03:53:03.611Z,90.15
2022-11-04T03:54:03.518Z,90.25
2022-11-04T03:55:03.123Z,90.25
2022-11-04T03:56:02.925Z,90.36
2022-11-04T03:57:02.409Z,90.66
2022-11-04T03:58:02.315Z,90.86
2022-11-04T03:59:02.729Z,91.38
2022-11-04T04:00:02.892Z,91.38
2022-11-04T04:01:02.429Z,90.86
2022-11-04T04:02:01.828Z,90.77
2022-11-04T04:03:01.842Z,91.01
2022-11-04T04:04:02.290Z,91.01
2022-11-04T04:05:01.842Z,91.31
2022-11-04T04:06:02.272Z,91.97
2022-11-04T04:07:02.299Z,91.93
2022-11-04T04:08:02.614Z,91.22
2022-11-04T04:09:02.103Z,90.81
2022-11-04T04:10:02.520Z,91.16
2022-11-04T04:11:02.356Z,91.46
2022-11-04T04:12:02.759Z,91.87
2022-11-04T04:13:02.866Z,92.28
2022-11-04T04:14:02.618Z,91.26
2022-11-04T04:15:02.900Z,90.75
2022-11-04T04:16:03.144Z,90.54
2022-11-04T04:17:02.433Z,91.16
2022-11-04T04:18:02.613Z,91.87
2022-11-04T04:19:02.154Z,91.46
2022-11-04T04:20:02.287Z,90.64
2022-11-04T04:21:02.610Z,90.23
2022-11-04T04:22:02.089Z,90.07
2022-11-04T04:23:01.819Z,90.37
2022-11-04T04:24:01.962Z,91.20
2022-11-04T04:25:02.352Z,91.50
2022-11-04T04:26:01.765Z,91.71
2022-11-04T04:27:02.111Z,91.82
2022-11-04T04:28:02.099Z,91.40
2022-11-04T04:29:01.779Z,92.27
2022-11-04T04:30:01.795Z,92.36
2022-11-04T04:31:02.393Z,92.57
2022-11-04T04:32:02.423Z,91.09
2022-11-04T04:33:02.807Z,90.89
2022-11-04T04:34:02.225Z,90.83
2022-11-04T04:35:02.538Z,90.83
2022-11-04T04:36:02.406Z,91.14
2022-11-04T04:37:02.697Z,90.93
2022-11-04T04:38:02.998Z,92.10
2022-11-04T04:39:03.011Z,92.51
2022-11-04T04:40:03.011Z,92.41
2022-11-04T04:41:02.426Z,92.51
2022-11-04T04:42:02.824Z,92.82
2022-11-04T04:43:03.100Z,93.23
2022-11-04T04:44:02.505Z,93.64
2022-11-04T04:45:02.909Z,93.85
2022-11-04T04:46:02.494Z,93.99
2022-11-04T04:47:02.904Z,94.15
2022-11-04T04:48:02.617Z,94.40
2022-11-04T04:49:02.751Z,94.30
2022-11-04T04:50:03.049Z,94.71
2022-11-04T04:51:03.178Z,93.38
2022-11-04T04:52:02.346Z,94.20
2022-11-04T04:53:02.044Z,94.20
2022-11-04T04:54:02.497Z,94.20
2022-11-04T04:55:02.266Z,93.27
2022-11-04T04:56:02.002Z,94.30
2022-11-04T04:57:02.550Z,95.02
2022-11-04T04:58:02.684Z,95.02
2022-11-04T04:59:02.429Z,95.23
2022-11-04T05:00:02.797Z,95.47
2022-11-04T05:01:02.574Z,95.89
2022-11-04T05:02:02.083Z,95.98
2022-11-04T05:03:01.701Z,96.19
2022-11-04T05:04:02.121Z,96.19
2022-11-04T05:05:01.889Z,95.98
2022-11-04T05:06:01.979Z,95.57
2022-11-04T05:07:02.241Z,95.47
2022-11-04T05:08:01.808Z,95.68
2022-11-04T05:09:02.039Z,95.89
2022-11-04T05:10:02.377Z,96.03
2022-11-04T05:11:01.745Z,96.14
2022-11-04T05:12:02.786Z,95.57
2022-11-04T05:13:02.967Z,94.96
2022-11-04T05:14:02.377Z,93.83
2022-11-04T05:15:03.010Z,94.18
2022-11-04T05:16:02.447Z,94.59
2022-11-04T05:17:02.514Z,94.49
2022-11-04T05:18:02.674Z,95.05
2022-11-04T05:19:02.543Z,94.90
2022-11-04T05:20:02.198Z,94.49
2022-11-04T05:21:02.538Z,93.67
2022-11-04T05:22:02.873Z,93.16
2022-11-04T05:23:02.514Z,93.26
2022-11-04T05:24:02.786Z,93.05
2022-11-04T05:25:02.394Z,92.64
2022-11-04T05:26:02.705Z,92.85
2022-11-04T05:27:02.256Z,92.13
2022-11-04T05:28:01.650Z,92.23
2022-11-04T05:29:01.914Z,92.54
2022-11-04T05:30:02.305Z,92.54
2022-11-04T05:31:01.948Z,93.20
2022-11-04T05:32:02.508Z,93.57
2022-11-04T05:33:04.832Z,94.12
2022-11-04T05:34:02.375Z,95.05
2022-11-04T05:35:02.105Z,95.67
2022-11-04T05:36:01.873Z,96.48
2022-11-04T05:37:02.378Z,96.59
2022-11-04T05:38:02.699Z,97.00
2022-11-04T05:39:02.969Z,96.59
2022-11-04T05:40:02.420Z,96.59
2022-11-04T05:41:02.487Z,96.48
2022-11-04T05:42:02.068Z,95.77
2022-11-04T05:43:02.032Z,95.25
2022-11-04T05:44:02.317Z,95.46
2022-11-04T05:45:02.076Z,94.54
2022-11-04T05:46:02.400Z,94.23
2022-11-04T05:47:02.729Z,94.12
2022-11-04T05:48:02.181Z,94.12
2022-11-04T05:49:02.658Z,95.09
2022-11-04T05:50:02.102Z,95.20
2022-11-04T05:51:02.453Z,95.40
2022-11-04T05:52:01.714Z,94.48
2022-11-04T05:53:02.191Z,95.20
2022-11-04T05:54:01.752Z,94.89
2022-11-04T05:55:02.091Z,94.78
2022-11-04T05:56:01.734Z,94.27
2022-11-04T05:57:02.579Z,94.07
2022-11-04T05:58:02.279Z,94.48
2022-11-04T05:59:02.528Z,94.78
2022-11-04T06:00:02.183Z,95.20
2022-11-04T06:01:02.264Z,94.89
2022-11-04T06:02:01.873Z,94.68
2022-11-04T06:03:02.064Z,95.30
2022-11-04T06:04:01.738Z,95.50
2022-11-04T06:05:01.812Z,96.22
2022-11-04T06:06:01.866Z,96.53
2022-11-04T06:07:02.636Z,96.64
2022-11-04T06:08:02.848Z,97.36
2022-11-04T06:09:02.285Z,97.56
2022-11-04T06:10:02.550Z,97.87
2022-11-04T06:11:02.355Z,98.07
2022-11-04T06:12:01.871Z,97.25
2022-11-04T06:13:02.353Z,96.43
2022-11-04T06:14:01.975Z,96.43
2022-11-04T06:15:01.678Z,97.25
2022-11-04T06:16:01.723Z,97.87
2022-11-04T06:17:02.832Z,97.87
2022-11-04T06:18:02.321Z,97.66
2022-11-04T06:19:06.065Z,97.77
2022-11-04T06:20:02.613Z,97.45
2022-11-04T06:21:02.339Z,97.77
2022-11-04T06:22:01.752Z,98.07
2022-11-04T06:23:02.080Z,98.18
2022-11-04T06:24:01.656Z,98.28
2022-11-04T06:25:02.204Z,98.74
2022-11-04T06:26:01.660Z,98.84
2022-11-04T06:27:02.165Z,99.05
2022-11-04T06:28:02.555Z,99.46
2022-11-04T06:29:02.581Z,99.56
2022-11-04T06:30:02.135Z,99.35
2022-11-04T06:31:01.960Z,99.46
2022-11-04T06:32:02.540Z,99.25
2022-11-04T06:33:02.999Z,99.46
2022-11-04T06:34:02.875Z,99.56
2022-11-04T06:35:02.586Z,99.77
2022-11-04T06:36:02.321Z,99.77
2022-11-04T06:37:01.829Z,99.77
2022-11-04T06:38:01.617Z,99.66
2022-11-04T06:39:04.861Z,98.74
2022-11-04T06:40:02.106Z,98.59
2022-11-04T06:41:01.930Z,98.28
2022-11-04T06:42:02.899Z,97.25
2022-11-04T06:43:01.770Z,96.84
2022-11-04T06:44:02.291Z,96.43
2022-11-04T06:45:01.995Z,96.22
2022-11-04T06:46:01.751Z,95.92
2022-11-04T06:47:02.205Z,95.71
2022-11-04T06:48:01.951Z,95.71
2022-11-04T06:49:02.383Z,95.71
2022-11-04T06:50:02.135Z,96.27
2022-11-04T06:51:02.555Z,96.37
2022-11-04T06:52:01.700Z,96.37
2022-11-04T06:53:01.991Z,96.37
2022-11-04T06:54:01.619Z,96.06
2022-11-04T06:55:01.412Z,95.45
2022-11-04T06:56:01.547Z,95.20
2022-11-04T06:57:02.031Z,95.20
2022-11-04T06:58:01.801Z,95.71
2022-11-04T06:59:02.319Z,96.68
2022-11-04T07:00:01.892Z,97.09
2022-11-04T07:01:03.901Z,96.94
2022-11-04T07:02:02.335Z,96.43
2022-11-04T07:03:02.154Z,96.43
2022-11-04T07:04:01.927Z,95.81
2022-11-04T07:05:02.424Z,96.33
2022-11-04T07:06:02.118Z,97.66
2022-11-04T07:07:02.641Z,98.28
2022-11-04T07:08:02.283Z,98.79
2022-11-04T07:09:02.454Z,99.31
2022-11-04T07:10:02.953Z,99.51
2022-11-04T07:11:02.491Z,99.82
2022-11-04T07:12:02.684Z,99.82
2022-11-04T07:13:03.053Z,99.82
2022-11-04T07:14:03.073Z,99.99
2022-11-04T07:15:02.897Z,99.99
2022-11-04T07:16:02.673Z,99.99
2022-11-04T07:17:02.445Z,99.99
2022-11-04T07:18:02.223Z,99.99
2022-11-04T07:19:02.034Z,99.99
2022-11-04T07:20:02.623Z,99.99
2022-11-04T07:21:07.055Z,99.99
2022-11-04T07:22:02.498Z,99.99
2022-11-04T07:23:02.250Z,99.99
2022-11-04T07:24:02.483Z,99.99
2022-11-04T07:25:02.591Z,99.99
2022-11-04T07:26:02.473Z,99.73
2022-11-04T07:27:02.954Z,99.89
2022-11-04T07:28:03.003Z,99.58
2022-11-04T07:29:02.645Z,99.58
2022-11-04T07:30:03.072Z,99.58
2022-11-04T07:31:02.747Z,99.58
2022-11-04T07:32:02.553Z,99.48
2022-11-04T07:33:02.434Z,99.58
2022-11-04T07:34:02.264Z,99.38
2022-11-04T07:35:02.539Z,99.54
2022-11-04T07:36:02.390Z,99.54
2022-11-04T07:37:02.767Z,99.33
2022-11-04T07:38:02.689Z,99.22
2022-11-04T07:39:02.420Z,99.18
2022-11-04T07:40:02.949Z,98.87
2022-11-04T07:41:02.366Z,98.57
2022-11-04T07:42:02.703Z,98.16
2022-11-04T07:43:02.547Z,98.05
2022-11-04T07:44:03.043Z,97.85
2022-11-04T07:45:02.643Z,97.91
2022-11-04T07:46:02.506Z,97.91
2022-11-04T07:47:02.247Z,97.80
2022-11-04T07:48:02.047Z,97.80
2022-11-04T07:49:01.820Z,97.70
2022-11-04T07:50:06.690Z,97.60
2022-11-04T07:51:02.321Z,97.80
2022-11-04T07:52:02.740Z,97.91
2022-11-04T07:53:02.450Z,97.91
2022-11-04T07:54:02.788Z,97.80
2022-11-04T07:55:02.673Z,97.91
2022-11-04T07:56:02.416Z,98.11
2022-11-04T07:57:03.060Z,98.00
2022-11-04T07:58:03.068Z,97.80
2022-11-04T07:59:02.987Z,97.75
2022-11-04T08:00:02.763Z,97.75
2022-11-04T08:01:02.622Z,97.55
2022-11-04T08:02:02.865Z,97.86
2022-11-04T08:03:02.756Z,98.07
2022-11-04T08:04:02.397Z,98.16
2022-11-04T08:05:02.163Z,98.07
2022-11-04T08:06:02.716Z,98.07
2022-11-04T08:07:02.888Z,98.07
2022-11-04T08:08:02.304Z,98.07
2022-11-04T08:09:02.559Z,97.91
2022-11-04T08:10:02.352Z,97.61
2022-11-04T08:11:02.917Z,97.71
2022-11-04T08:12:02.145Z,97.61
2022-11-04T08:13:01.886Z,97.40
2022-11-04T08:14:01.761Z,97.61
2022-11-04T08:15:01.571Z,97.40
2022-11-04T08:16:01.720Z,97.46
2022-11-04T08:17:02.203Z,97.46
2022-11-04T08:18:02.114Z,97.46
2022-11-04T08:19:01.872Z,97.46
2022-11-04T08:20:01.744Z,97.15
2022-11-04T08:21:01.977Z,97.25
2022-11-04T08:22:02.829Z,97.15
2022-11-04T08:23:02.291Z,96.84
2022-11-04T08:24:02.248Z,96.84
2022-11-04T08:25:02.486Z,96.74
2022-11-04T08:26:02.922Z,96.84
2022-11-04T08:27:01.944Z,96.84
2022-11-04T08:28:02.006Z,97.15
2022-11-04T08:29:02.614Z,97.21
2022-11-04T08:30:02.243Z,97.11
2022-11-04T08:31:02.301Z,97.00
2022-11-04T08:32:02.438Z,97.21
2022-11-04T08:33:02.938Z,97.11
2022-11-04T08:34:02.526Z,97.27
2022-11-04T08:35:02.462Z,96.86
2022-11-04T08:36:02.757Z,96.86
2022-11-04T08:37:03.089Z,96.75
2022-11-04T08:38:02.790Z,96.75
2022-11-04T08:39:08.962Z,96.75
2022-11-04T08:40:02.832Z,96.75
2022-11-04T08:41:02.902Z,96.86
2022-11-04T08:42:02.199Z,96.86
2022-11-04T08:43:02.461Z,96.86
2022-11-04T08:44:02.183Z,96.86
2022-11-04T08:45:02.661Z,96.92
2022-11-04T08:46:02.777Z,97.12
2022-11-04T08:47:02.317Z,97.22
2022-11-04T08:48:05.727Z,96.92
2022-11-04T08:49:07.067Z,97.08
2022-11-04T08:50:02.475Z,97.17
2022-11-04T08:51:02.275Z,97.08
2022-11-04T08:52:01.924Z,96.87
2022-11-04T08:53:01.912Z,96.51
2022-11-04T08:54:02.011Z,96.42
2022-11-04T08:55:02.175Z,96.21
2022-11-04T08:56:02.017Z,95.90
2022-11-04T08:57:02.145Z,95.80
2022-11-04T08:58:02.647Z,95.70
2022-11-04T08:59:02.249Z,95.65
2022-11-04T09:00:02.218Z,95.45
2022-11-04T09:01:02.597Z,95.35
2022-11-04T09:02:02.647Z,95.04
2022-11-04T09:03:02.716Z,94.84
2022-11-04T09:04:02.491Z,94.59
2022-11-04T09:05:02.755Z,94.79
2022-11-04T09:06:02.531Z,94.70
2022-11-04T09:07:07.721Z,94.70
2022-11-04T09:08:02.540Z,94.70
2022-11-04T09:09:02.313Z,94.90
2022-11-04T09:10:02.287Z,94.90
2022-11-04T09:11:02.157Z,94.90
2022-11-04T09:12:02.467Z,94.90
2022-11-04T09:13:02.576Z,94.70
2022-11-04T09:14:02.451Z,95.00
2022-11-04T09:15:02.400Z,95.41
2022-11-04T09:16:02.901Z,95.31
2022-11-04T09:17:02.502Z,95.10
2022-11-04T09:18:02.597Z,95.20
2022-11-04T09:19:02.443Z,95.61
2022-11-04T09:20:02.760Z,95.72
2022-11-04T09:21:02.662Z,95.72
2022-11-04T09:22:02.605Z,95.61
2022-11-04T09:23:02.859Z,95.41
2022-11-04T09:24:02.786Z,95.06
2022-11-04T09:25:02.480Z,95.06
2022-11-04T09:26:02.973Z,95.36
2022-11-04T09:27:02.852Z,95.36
2022-11-04T09:28:03.329Z,95.67
2022-11-04T09:29:03.274Z,95.87
2022-11-04T09:30:02.979Z,96.18
2022-11-04T09:31:02.775Z,96.08
2022-11-04T09:32:03.130Z,95.83
2022-11-04T09:33:03.035Z,96.03
2022-11-04T09:34:03.053Z,96.14
2022-11-04T09:35:02.899Z,96.14
2022-11-04T09:36:02.820Z,96.03
2022-11-04T09:37:02.972Z,95.62
2022-11-04T09:38:03.256Z,94.81
2022-11-04T09:39:03.381Z,95.52
2022-11-04T09:40:03.471Z,95.78
2022-11-04T09:41:03.061Z,95.48
2022-11-04T09:42:02.516Z,95.48
2022-11-04T09:43:02.423Z,94.76
2022-11-04T09:44:02.284Z,94.31
2022-11-04T09:46:02.409Z,94.52
2022-11-04T09:47:03.059Z,94.82
2022-11-04T09:48:02.761Z,94.82
2022-11-04T09:49:02.560Z,94.68
2022-11-04T09:50:02.739Z,94.88
2022-11-04T09:51:02.664Z,95.18
2022-11-04T09:52:02.884Z,93.45
2022-11-04T09:53:02.815Z,93.35
2022-11-04T09:54:03.072Z,93.41
2022-11-04T09:55:02.663Z,93.62
2022-11-04T09:56:03.127Z,93.10
2022-11-04T09:57:02.958Z,91.78
2022-11-04T09:58:02.983Z,91.48
2022-11-04T09:59:02.780Z,91.58
2022-11-04T10:00:02.737Z,91.17
2022-11-04T10:01:02.981Z,91.38
2022-11-04T10:02:02.245Z,91.23
2022-11-04T10:03:02.300Z,91.33
2022-11-04T10:04:01.979Z,90.72
2022-11-04T10:05:02.207Z,90.31
2022-11-04T10:06:02.434Z,91.43
2022-11-04T10:07:02.261Z,91.53
2022-11-04T10:08:02.146Z,90.52
2022-11-04T10:09:02.609Z,91.03
2022-11-04T10:10:02.308Z,90.92
2022-11-04T10:11:02.123Z,90.27
2022-11-04T10:12:02.569Z,90.27
2022-11-04T10:13:02.273Z,90.78
2022-11-04T10:14:02.553Z,90.48
2022-11-04T10:15:02.514Z,89.97
2022-11-04T10:16:02.381Z,90.48
2022-11-04T10:17:02.562Z,90.68
2022-11-04T10:18:02.761Z,90.27
2022-11-04T10:19:02.711Z,90.23
2022-11-04T10:20:02.761Z,88.60
2022-11-04T10:21:02.646Z,88.30
2022-11-04T10:22:02.156Z,87.59
2022-11-04T10:23:02.001Z,87.99
2022-11-04T10:24:01.826Z,88.30
2022-11-04T10:25:01.894Z,87.79
2022-11-04T10:26:02.249Z,87.69
2022-11-04T10:27:02.770Z,88.30
2022-11-04T10:28:02.761Z,88.81
2022-11-04T10:29:02.465Z,88.56
2022-11-04T10:30:03.045Z,87.89
2022-11-04T10:31:02.744Z,87.18
2022-11-04T10:32:02.143Z,87.18
2022-11-04T10:33:02.002Z,87.38
2022-11-04T10:34:02.021Z,88.16
2022-11-04T10:35:01.884Z,88.46
2022-11-04T10:36:01.747Z,88.16
2022-11-04T10:37:02.273Z,86.94
2022-11-04T10:38:02.086Z,86.43
2022-11-04T10:39:01.965Z,86.83
2022-11-04T10:40:02.555Z,87.55
2022-11-04T10:41:07.038Z,87.65
2022-11-04T10:42:02.687Z,87.75
2022-11-04T10:43:02.829Z,87.34
2022-11-04T10:44:02.791Z,87.81
2022-11-04T10:45:02.613Z,87.81
2022-11-04T10:46:02.562Z,87.51
2022-11-04T10:47:02.176Z,87.51
2022-11-04T10:48:02.153Z,87.61
2022-11-04T10:49:02.112Z,87.71
2022-11-04T10:51:01.979Z,85.68
2022-11-04T10:52:02.835Z,86.39
2022-11-04T10:53:02.628Z,86.08
2022-11-04T10:54:02.649Z,85.07
2022-11-04T10:55:02.338Z,86.29
2022-11-04T10:56:02.988Z,86.49
2022-11-04T10:57:02.313Z,86.86
2022-11-04T10:58:01.816Z,86.45
2022-11-04T10:59:01.967Z,86.15
2022-11-04T11:00:01.779Z,86.65
2022-11-04T11:01:02.433Z,86.65
2022-11-04T11:02:02.440Z,85.84
2022-11-04T11:03:02.438Z,84.72
2022-11-04T11:04:02.313Z,83.81
2022-11-04T11:05:01.770Z,84.52
2022-11-04T11:06:02.327Z,84.83
2022-11-04T11:07:02.872Z,84.52
2022-11-04T11:08:02.710Z,83.10
2022-11-04T11:09:02.551Z,84.22
2022-11-04T11:10:02.760Z,83.81
2022-11-04T11:11:02.564Z,83.91
2022-11-04T11:12:02.070Z,83.40
2022-11-04T11:13:01.965Z,82.86
2022-11-04T11:14:01.810Z,82.15
2022-11-04T11:15:01.586Z,83.37
2022-11-04T11:16:02.189Z,83.06
2022-11-04T11:17:02.128Z,83.73
2022-11-04T11:18:01.964Z,83.63
2022-11-04T11:19:01.812Z,81.10
2022-11-04T11:20:02.169Z,81.40
2022-11-04T11:21:02.221Z,82.72
2022-11-04T11:22:02.606Z,83.39
2022-11-04T11:23:05.028Z,82.07
2022-11-04T11:24:02.194Z,82.07
2022-11-04T11:25:02.407Z,78.73
2022-11-04T11:26:02.332Z,79.88
2022-11-04T11:27:02.649Z,81.57
2022-11-04T11:28:02.282Z,82.17
2022-11-04T11:29:02.543Z,81.87
2022-11-04T11:30:02.500Z,81.57
2022-11-04T11:31:02.385Z,81.06
2022-11-04T11:32:02.338Z,80.86
2022-11-04T11:33:01.988Z,80.65
2022-11-04T11:34:01.835Z,79.74
2022-11-04T11:35:01.664Z,80.55
2022-11-04T11:36:02.310Z,80.55
2022-11-04T11:37:02.457Z,81.16
2022-11-04T11:38:01.832Z,80.25
2022-11-04T11:39:02.457Z,80.82
2022-11-04T11:40:02.406Z,81.43
2022-11-04T11:41:23.919Z,81.93
2022-11-04T11:42:02.773Z,81.63
2022-11-04T11:43:02.737Z,81.63
2022-11-04T11:44:02.604Z,81.29
2022-11-04T11:45:02.306Z,81.79
2022-11-04T11:46:02.599Z,79.77
2022-11-04T11:47:01.560Z,78.55
2022-11-04T11:48:02.092Z,77.44
2022-11-04T11:49:01.983Z,77.14
2022-11-04T11:50:01.888Z,76.06
2022-11-04T11:51:01.708Z,77.17
2022-11-04T11:52:01.588Z,77.24
2022-11-04T11:53:01.901Z,78.66
2022-11-04T11:54:01.707Z,78.25
2022-11-04T11:55:02.195Z,77.75
2022-11-04T11:56:01.697Z,75.92
2022-11-04T11:57:22.343Z,74.71
2022-11-04T12:01:08.173Z,78.62
2022-11-04T12:02:03.651Z,78.52
2022-11-04T12:03:03.729Z,78.21
2022-11-04T12:06:19.519Z,78.88
2022-11-04T12:09:20.595Z,77.03
2022-11-04T12:10:02.459Z,76.72
2022-11-04T12:11:03.101Z,77.19
2022-11-04T12:12:02.733Z,75.78
2022-11-04T12:13:03.354Z,73.05
2022-11-04T12:14:03.265Z,75.37
2022-11-04T12:15:02.966Z,75.64
2022-11-04T12:16:02.781Z,76.04
2022-11-04T12:17:03.145Z,76.75
2022-11-04T12:18:03.403Z,73.79
2022-11-04T12:19:03.793Z,72.88
2022-11-04T12:20:03.485Z,71.40
2022-11-04T12:21:03.643Z,73.02
2022-11-04T12:22:03.787Z,75.10
2022-11-04T12:23:03.474Z,75.31
2022-11-04T12:24:03.077Z,72.17
2022-11-04T12:25:03.122Z,72.27
2022-11-04T12:26:03.060Z,72.64
2022-11-04T12:27:02.892Z,72.14
2022-11-04T12:28:03.063Z,72.44
2022-11-04T12:29:03.215Z,70.62
2022-11-04T12:30:03.480Z,71.44
2022-11-04T12:31:03.737Z,72.61
2022-11-04T12:32:03.595Z,73.62
2022-11-04T12:33:03.180Z,72.47
2022-11-04T12:34:02.944Z,71.87
2022-11-04T12:35:02.876Z,71.37
2022-11-04T12:36:03.123Z,72.07
2022-11-04T12:37:02.835Z,72.74
2022-11-04T12:38:03.880Z,72.85
2022-11-04T12:39:03.592Z,70.93
2022-11-04T12:40:03.337Z,68.91
2022-11-04T12:41:34.356Z,69.01
2022-11-04T12:43:03.201Z,68.71
2022-11-04T12:44:03.087Z,71.10
2022-11-04T12:45:02.931Z,71.10
2022-11-04T12:46:03.128Z,67.07
2022-11-04T12:47:02.852Z,68.68
2022-11-04T12:48:03.428Z,70.19
2022-11-04T12:49:07.265Z,68.98
2022-11-04T12:50:03.573Z,70.09
2022-11-04T12:51:03.566Z,68.08
2022-11-04T12:52:03.614Z,66.87
2022-11-04T12:53:03.297Z,66.80
2022-11-04T12:54:03.253Z,68.44
2022-11-04T12:55:03.837Z,70.36
2022-11-04T12:56:03.506Z,70.56
2022-11-04T12:57:03.482Z,71.23
2022-11-04T12:58:02.971Z,72.34
2022-11-04T12:59:03.259Z,70.62
2022-11-04T13:00:03.107Z,70.90
2022-11-04T13:01:03.203Z,70.59
2022-11-04T13:02:03.351Z,70.79
2022-11-04T13:03:03.646Z,69.96